createdAt,value
2023-03-16T00:00:48.433Z,8.20
2023-03-16T00:03:35.485Z,8.30
2023-03-16T00:06:21.155Z,8.40
2023-03-16T00:09:07.517Z,8.40
2023-03-16T00:11:53.602Z,8.30
2023-03-16T00:14:39.299Z,8.30
2023-03-16T00:17:26.876Z,8.50
2023-03-16T00:20:14.994Z,8.40
2023-03-16T00:23:03.417Z,8.40
2023-03-16T00:25:49.712Z,8.20
2023-03-16T00:28:37.742Z,8.10
2023-03-16T00:31:25.156Z,8.00
2023-03-16T00:34:16.042Z,8.10
2023-03-16T00:37:02.677Z,8.00
2023-03-16T00:39:50.717Z,7.90
2023-03-16T00:42:43.632Z,7.90
2023-03-16T00:45:35.363Z,7.90
2023-03-16T00:48:25.101Z,6.80
2023-03-16T00:51:17.332Z,7.90
2023-03-16T00:54:05.745Z,8.00
2023-03-16T00:56:52.453Z,8.20
2023-03-16T00:59:40.303Z,8.30
2023-03-16T01:02:27.316Z,8.10
2023-03-16T01:05:15.025Z,7.80
2023-03-16T01:08:04.534Z,7.80
2023-03-16T01:10:50.751Z,7.90
2023-03-16T01:13:38.804Z,8.00
2023-03-16T01:16:33.959Z,8.30
2023-03-16T01:19:20.094Z,8.60
2023-03-16T01:22:09.916Z,8.70
2023-03-16T01:24:57.516Z,8.70
2023-03-16T01:27:44.309Z,8.70
2023-03-16T01:30:31.259Z,8.60
2023-03-16T01:33:18.013Z,8.40
2023-03-16T01:36:07.940Z,8.30
2023-03-16T01:39:02.472Z,8.50
2023-03-16T01:41:55.198Z,8.50
2023-03-16T01:44:56.925Z,8.10
2023-03-16T01:47:48.076Z,8.40
2023-03-16T01:50:39.212Z,8.30
2023-03-16T01:53:26.895Z,8.20
2023-03-16T01:56:16.771Z,8.20
2023-03-16T01:59:07.912Z,8.10
2023-03-16T02:01:55.042Z,8.20
2023-03-16T02:05:14.364Z,8.20
2023-03-16T02:08:02.129Z,8.30
2023-03-16T02:10:48.944Z,8.30
2023-03-16T02:13:36.960Z,8.10
2023-03-16T02:16:24.007Z,8.10
2023-03-16T02:19:19.827Z,7.70
2023-03-16T02:22:09.074Z,8.00
2023-03-16T02:24:55.955Z,8.10
2023-03-16T02:27:56.031Z,8.20
2023-03-16T02:30:42.814Z,8.10
2023-03-16T02:33:30.550Z,7.70
2023-03-16T02:36:19.596Z,8.10
2023-03-16T02:39:07.077Z,7.30
2023-03-16T02:42:04.572Z,7.40
2023-03-16T02:45:00.656Z,7.60
2023-03-16T02:47:54.008Z,7.90
2023-03-16T02:50:47.667Z,7.90
2023-03-16T02:53:35.961Z,7.80
2023-03-16T02:56:23.417Z,7.80
2023-03-16T02:59:12.546Z,7.70
2023-03-16T03:02:00.479Z,7.70
2023-03-16T03:04:48.866Z,7.70
2023-03-16T03:07:35.817Z,7.40
2023-03-16T03:10:24.944Z,7.40
2023-03-16T03:13:12.646Z,7.30
2023-03-16T03:15:59.722Z,7.20
2023-03-16T03:18:48.233Z,7.00
2023-03-16T03:21:34.624Z,7.10
2023-03-16T03:24:20.805Z,6.90
2023-03-16T03:27:07.054Z,6.70
2023-03-16T03:29:57.524Z,6.70
2023-03-16T03:32:44.562Z,6.60
2023-03-16T03:35:33.079Z,6.70
2023-03-16T03:38:19.661Z,6.80
2023-03-16T03:41:08.521Z,6.70
2023-03-16T03:43:57.826Z,6.60
2023-03-16T03:46:44.338Z,6.70
2023-03-16T03:49:31.093Z,6.90
2023-03-16T03:52:17.358Z,6.90
2023-03-16T03:55:03.647Z,7.00
2023-03-16T03:57:49.666Z,7.00
2023-03-16T04:00:35.965Z,7.00
2023-03-16T04:03:22.260Z,7.00
2023-03-16T04:06:08.751Z,6.90
2023-03-16T04:08:55.383Z,6.90
2023-03-16T04:11:45.582Z,7.00
2023-03-16T04:14:32.321Z,7.00
2023-03-16T04:17:20.995Z,7.20
2023-03-16T04:20:14.570Z,7.20
2023-03-16T04:23:02.863Z,7.30
2023-03-16T04:25:50.259Z,7.30
2023-03-16T04:28:38.991Z,7.20
2023-03-16T04:31:28.141Z,7.00
2023-03-16T04:34:14.902Z,6.90
2023-03-16T04:37:04.645Z,7.00
2023-03-16T04:39:53.520Z,7.00
2023-03-16T04:42:40.248Z,6.90
2023-03-16T04:45:28.219Z,7.00
2023-03-16T04:48:16.195Z,7.30
2023-03-16T04:51:06.142Z,7.30
2023-03-16T04:53:56.124Z,6.10
2023-03-16T04:56:48.929Z,7.10
2023-03-16T04:59:51.249Z,7.20
2023-03-16T05:02:47.644Z,7.20
2023-03-16T05:05:35.388Z,7.30
2023-03-16T05:08:21.984Z,7.20
2023-03-16T05:11:10.020Z,7.00
2023-03-16T05:14:06.672Z,6.90
2023-03-16T05:17:03.892Z,6.80
2023-03-16T05:19:50.803Z,6.80
2023-03-16T05:22:46.682Z,6.60
2023-03-16T05:25:40.665Z,6.40
2023-03-16T05:28:29.263Z,6.50
2023-03-16T05:31:20.123Z,6.70
2023-03-16T05:34:16.923Z,6.80
2023-03-16T05:37:02.918Z,6.80
2023-03-16T05:39:50.695Z,6.80
2023-03-16T05:42:38.492Z,6.70
2023-03-16T05:45:24.917Z,6.60
2023-03-16T05:48:27.611Z,6.30
2023-03-16T05:51:17.570Z,6.00
2023-03-16T05:54:04.891Z,5.90
2023-03-16T05:56:57.554Z,6.00
2023-03-16T05:59:44.379Z,6.10
2023-03-16T06:06:43.906Z,6.60
2023-03-16T06:09:41.349Z,6.80
2023-03-16T06:12:35.328Z,6.70
2023-03-16T06:15:28.372Z,6.70
2023-03-16T06:18:15.906Z,6.10
2023-03-16T06:21:04.301Z,7.10
2023-03-16T06:23:52.641Z,7.20
2023-03-16T06:26:39.739Z,7.40
2023-03-16T06:29:29.946Z,7.50
2023-03-16T06:32:16.517Z,7.50
2023-03-16T06:35:05.461Z,7.50
2023-03-16T06:37:52.911Z,7.60
2023-03-16T06:40:59.026Z,7.80
2023-03-16T06:43:45.381Z,7.90
2023-03-16T06:46:33.295Z,8.10
2023-03-16T06:49:22.001Z,8.30
2023-03-16T06:52:23.615Z,8.30
2023-03-16T06:55:12.997Z,8.50
2023-03-16T06:58:03.429Z,8.60
2023-03-16T07:00:49.592Z,8.40
2023-03-16T07:03:35.533Z,8.30
2023-03-16T07:06:28.343Z,8.30
2023-03-16T07:09:13.941Z,8.20
2023-03-16T07:12:00.936Z,8.00
2023-03-16T07:14:50.731Z,8.30
2023-03-16T07:17:41.146Z,8.40
2023-03-16T07:20:29.142Z,8.50
2023-03-16T07:23:15.486Z,8.20
2023-03-16T07:26:04.019Z,8.50
2023-03-16T07:28:52.970Z,9.00
2023-03-16T07:31:39.806Z,8.60
2023-03-16T07:34:34.139Z,6.90
2023-03-16T07:37:25.401Z,8.70
2023-03-16T07:40:15.220Z,8.80
2023-03-16T07:43:04.553Z,8.80
2023-03-16T07:46:00.086Z,8.70
2023-03-16T07:48:46.154Z,8.60
2023-03-16T07:51:33.647Z,9.00
2023-03-16T07:54:21.986Z,9.20
2023-03-16T07:57:09.036Z,9.80
2023-03-16T07:59:59.656Z,11.20
2023-03-16T08:02:46.441Z,12.70
2023-03-16T08:05:33.114Z,13.90
2023-03-16T08:08:23.637Z,13.60
2023-03-16T08:11:10.212Z,13.80
2023-03-16T08:14:11.742Z,13.90
2023-03-16T08:17:23.900Z,13.50
2023-03-16T08:20:15.794Z,13.90
2023-03-16T08:23:02.980Z,14.30
2023-03-16T08:25:57.893Z,16.60
2023-03-16T08:28:47.635Z,17.90
2023-03-16T08:31:35.394Z,17.90
2023-03-16T08:34:32.628Z,15.80
2023-03-16T08:37:19.291Z,12.80
2023-03-16T08:40:17.112Z,15.40
2023-03-16T08:43:26.710Z,16.50
2023-03-16T08:46:13.937Z,14.30
2023-03-16T08:49:09.045Z,15.50
2023-03-16T08:51:57.578Z,17.60
2023-03-16T08:54:59.784Z,17.90
2023-03-16T08:57:49.331Z,17.00
2023-03-16T09:00:36.596Z,17.00
2023-03-16T09:03:23.180Z,17.90
2023-03-16T09:06:11.481Z,16.40
2023-03-16T09:08:58.948Z,15.80
2023-03-16T09:11:45.274Z,17.70
2023-03-16T09:14:31.232Z,17.60
2023-03-16T09:17:17.944Z,16.50
2023-03-16T09:20:21.192Z,18.10
2023-03-16T09:23:10.133Z,18.70
2023-03-16T09:26:01.556Z,19.20
2023-03-16T09:28:48.150Z,18.10
2023-03-16T09:31:34.970Z,15.70
2023-03-16T09:34:22.053Z,16.80
2023-03-16T09:37:08.527Z,19.40
2023-03-16T09:39:57.996Z,20.80
2023-03-16T09:43:12.925Z,19.80
2023-03-16T09:46:33.973Z,18.90
2023-03-16T09:49:26.318Z,19.90
2023-03-16T09:52:31.092Z,19.10
2023-03-16T09:55:31.950Z,21.20
2023-03-16T09:58:21.578Z,18.30
2023-03-16T10:01:36.258Z,20.00
2023-03-16T10:04:38.033Z,19.40
2023-03-16T10:07:49.339Z,21.30
2023-03-16T10:10:45.353Z,21.40
2023-03-16T10:13:36.962Z,20.50
2023-03-16T10:16:37.739Z,19.30
2023-03-16T10:19:44.117Z,17.90
2023-03-16T10:22:35.693Z,19.20
2023-03-16T10:25:34.813Z,19.00
2023-03-16T10:28:26.451Z,16.50
2023-03-16T10:31:14.312Z,16.80
2023-03-16T10:34:08.516Z,16.30
2023-03-16T10:36:55.998Z,15.60
2023-03-16T10:39:45.657Z,16.30
2023-03-16T10:42:31.802Z,16.10
2023-03-16T10:45:35.195Z,16.30
2023-03-16T10:48:22.788Z,17.20
2023-03-16T10:51:13.044Z,18.60
2023-03-16T10:54:11.587Z,17.30
2023-03-16T10:57:00.542Z,17.70
2023-03-16T10:59:50.686Z,17.80
2023-03-16T11:02:36.843Z,17.10
2023-03-16T11:05:42.699Z,17.70
2023-03-16T11:08:42.136Z,18.80
2023-03-16T11:11:35.448Z,20.80
2023-03-16T11:14:28.739Z,18.00
2023-03-16T11:17:19.416Z,18.60
2023-03-16T11:20:18.752Z,16.90
2023-03-16T11:23:16.792Z,15.80
2023-03-16T11:26:06.157Z,15.40
2023-03-16T11:29:22.224Z,15.00
2023-03-16T11:32:34.571Z,14.80
2023-03-16T11:35:22.802Z,14.40
2023-03-16T11:38:12.074Z,14.20
2023-03-16T11:41:03.351Z,14.30
2023-03-16T11:43:55.627Z,14.40
2023-03-16T11:46:45.862Z,14.60
2023-03-16T11:50:07.979Z,14.50
2023-03-16T11:53:24.804Z,14.50
2023-03-16T11:56:32.213Z,14.70
2023-03-16T12:00:01.107Z,14.70
2023-03-16T12:03:10.304Z,15.20
2023-03-16T12:06:23.990Z,14.90
2023-03-16T12:09:20.195Z,15.00
2023-03-16T12:12:38.846Z,14.90
2023-03-16T12:15:40.823Z,14.70
2023-03-16T12:18:53.395Z,15.00
2023-03-16T12:21:46.584Z,14.80
2023-03-16T12:24:42.800Z,14.70
2023-03-16T12:27:34.440Z,15.00
2023-03-16T12:30:36.371Z,15.20
2023-03-16T12:33:23.580Z,15.00
2023-03-16T12:36:58.930Z,15.20
2023-03-16T12:40:10.031Z,15.10
2023-03-16T12:43:18.281Z,15.00
2023-03-16T12:46:12.174Z,15.00
2023-03-16T12:49:02.506Z,15.00
2023-03-16T12:52:11.342Z,14.90
2023-03-16T12:55:09.110Z,15.30
2023-03-16T12:58:06.635Z,15.30
2023-03-16T13:00:59.909Z,15.40
2023-03-16T13:03:50.820Z,15.10
2023-03-16T13:06:45.237Z,15.50
2023-03-16T13:09:34.220Z,15.40
2023-03-16T13:12:39.124Z,15.10
2023-03-16T13:15:24.899Z,15.80
2023-03-16T13:18:20.227Z,15.60
2023-03-16T13:21:36.260Z,15.80
2023-03-16T13:24:36.373Z,15.80
2023-03-16T13:27:28.571Z,15.50
2023-03-16T13:30:22.542Z,15.40
2023-03-16T13:33:29.048Z,15.40
2023-03-16T13:36:15.930Z,15.20
2023-03-16T13:39:27.441Z,15.20
2023-03-16T13:42:21.273Z,15.20
2023-03-16T13:45:16.081Z,15.20
2023-03-16T13:48:03.454Z,15.60
2023-03-16T13:50:54.331Z,15.70
2023-03-16T13:53:42.806Z,15.50
2023-03-16T13:56:30.372Z,15.50
2023-03-16T13:59:18.008Z,15.30
2023-03-16T14:02:18.444Z,15.20
2023-03-16T14:05:20.309Z,15.20
2023-03-16T14:08:23.682Z,15.50
2023-03-16T14:11:13.879Z,15.60
2023-03-16T14:14:01.145Z,15.30
2023-03-16T14:16:47.293Z,15.30
2023-03-16T14:19:44.405Z,15.40
2023-03-16T14:22:38.448Z,15.40
2023-03-16T14:25:29.929Z,15.50
2023-03-16T14:28:18.018Z,15.60
2023-03-16T14:31:19.391Z,15.30
2023-03-16T14:34:20.094Z,15.50
2023-03-16T14:37:11.690Z,15.30
2023-03-16T14:40:08.850Z,15.30
2023-03-16T14:42:57.942Z,15.60
2023-03-16T14:45:44.903Z,15.50
2023-03-16T14:48:31.686Z,15.70
2023-03-16T14:51:20.348Z,15.40
2023-03-16T14:54:17.897Z,15.40
2023-03-16T14:57:05.803Z,15.70
2023-03-16T14:59:51.896Z,15.60
2023-03-16T15:02:38.565Z,15.80
2023-03-16T15:05:39.586Z,15.40
2023-03-16T15:08:32.050Z,15.50
2023-03-16T15:11:21.671Z,15.40
2023-03-16T15:14:35.355Z,15.30
2023-03-16T15:17:21.472Z,15.30
2023-03-16T15:20:08.321Z,15.50
2023-03-16T15:22:54.445Z,15.50
2023-03-16T15:25:42.630Z,15.70
2023-03-16T15:28:28.375Z,15.50
2023-03-16T15:31:14.744Z,15.20
2023-03-16T15:34:01.604Z,15.20
2023-03-16T15:36:47.348Z,15.30
2023-03-16T15:39:33.095Z,15.20
2023-03-16T15:42:19.976Z,15.10
2023-03-16T15:45:11.169Z,15.10
2023-03-16T15:47:57.095Z,15.30
2023-03-16T15:51:00.792Z,15.50
2023-03-16T15:53:59.803Z,15.70
2023-03-16T15:56:54.372Z,15.50
2023-03-16T15:59:42.053Z,15.90
2023-03-16T16:02:31.142Z,15.80
2023-03-16T16:05:17.431Z,15.40
2023-03-16T16:08:03.253Z,15.20
2023-03-16T16:10:53.287Z,15.20
2023-03-16T16:13:44.627Z,15.30
2023-03-16T16:16:33.909Z,15.70
2023-03-16T16:19:20.104Z,15.50
2023-03-16T16:22:06.014Z,15.00
2023-03-16T16:24:51.841Z,14.90
2023-03-16T16:27:37.869Z,14.70
2023-03-16T16:30:29.476Z,14.90
2023-03-16T16:33:24.314Z,15.00
2023-03-16T16:36:20.403Z,14.80
2023-03-16T16:39:07.851Z,14.70
2023-03-16T16:41:56.610Z,14.50
2023-03-16T16:44:44.013Z,14.40
2023-03-16T16:47:29.486Z,14.30
2023-03-16T16:50:23.742Z,14.20
2023-03-16T16:53:23.581Z,14.20
2023-03-16T16:56:18.424Z,14.20
2023-03-16T16:59:32.397Z,14.10
2023-03-16T17:02:42.666Z,14.00
2023-03-16T17:05:30.237Z,14.00
2023-03-16T17:08:17.562Z,13.90
2023-03-16T17:11:03.836Z,13.80
2023-03-16T17:13:51.276Z,13.70
2023-03-16T17:16:38.120Z,13.70
2023-03-16T17:19:27.161Z,13.70
2023-03-16T17:22:31.555Z,13.60
2023-03-16T17:25:19.066Z,13.50
2023-03-16T17:28:05.612Z,13.30
2023-03-16T17:30:52.679Z,13.40
2023-03-16T17:33:38.631Z,13.30
2023-03-16T17:36:25.445Z,13.30
2023-03-16T17:39:32.789Z,13.20
2023-03-16T17:42:20.406Z,13.00
2023-03-16T17:45:14.782Z,12.90
2023-03-16T17:48:05.475Z,12.90
2023-03-16T17:50:52.024Z,12.80
2023-03-16T17:53:38.202Z,12.70
2023-03-16T17:56:28.043Z,12.70
2023-03-16T17:59:17.707Z,12.70
2023-03-16T18:02:03.827Z,12.60
2023-03-16T18:04:49.734Z,12.50
2023-03-16T18:07:36.392Z,12.50
2023-03-16T18:10:26.752Z,12.50
2023-03-16T18:13:23.118Z,12.60
2023-03-16T18:16:15.280Z,12.70
2023-03-16T18:19:05.853Z,12.90
2023-03-16T18:21:53.934Z,12.80
2023-03-16T18:24:40.273Z,12.90
2023-03-16T18:27:27.537Z,12.70
2023-03-16T18:30:14.599Z,12.40
2023-03-16T18:33:02.060Z,12.40
2023-03-16T18:35:50.323Z,12.60
2023-03-16T18:38:42.946Z,12.50
2023-03-16T18:41:32.201Z,12.70
2023-03-16T18:44:19.183Z,12.60
2023-03-16T18:47:05.406Z,12.50
2023-03-16T18:49:54.239Z,12.40
2023-03-16T18:52:42.197Z,12.30
2023-03-16T18:55:29.036Z,12.00
2023-03-16T18:58:21.161Z,12.00
2023-03-16T19:01:12.471Z,11.90
2023-03-16T19:04:00.247Z,11.60
2023-03-16T19:06:46.496Z,11.40
2023-03-16T19:09:32.880Z,11.40
2023-03-16T19:12:20.695Z,11.50
2023-03-16T19:15:15.982Z,11.50
2023-03-16T19:18:02.140Z,11.40
2023-03-16T19:20:50.372Z,11.40
2023-03-16T19:23:37.865Z,11.30
2023-03-16T19:26:24.257Z,11.60
2023-03-16T19:29:13.480Z,11.10
2023-03-16T19:31:59.701Z,11.10
2023-03-16T19:34:46.845Z,11.10
2023-03-16T19:37:32.691Z,11.30
2023-03-16T19:40:21.666Z,11.20
2023-03-16T19:43:12.792Z,11.30
2023-03-16T19:45:58.854Z,11.20
2023-03-16T19:48:45.048Z,11.20
2023-03-16T19:51:32.665Z,11.10
2023-03-16T19:54:23.320Z,11.20
2023-03-16T19:57:15.340Z,11.10
2023-03-16T20:00:01.533Z,11.20
2023-03-16T20:02:47.852Z,11.20
2023-03-16T20:05:33.961Z,10.80
2023-03-16T20:08:28.654Z,10.90
2023-03-16T20:11:29.546Z,10.90
2023-03-16T20:14:46.522Z,10.80
2023-03-16T20:17:34.154Z,10.60
2023-03-16T20:20:24.215Z,10.60
2023-03-16T20:23:23.230Z,10.70
2023-03-16T20:26:19.019Z,10.50
2023-03-16T20:29:06.304Z,10.60
2023-03-16T20:31:52.459Z,10.90
2023-03-16T20:34:38.047Z,10.80
2023-03-16T20:37:25.068Z,10.80
2023-03-16T20:40:11.538Z,10.50
2023-03-16T20:42:57.696Z,10.40
2023-03-16T20:45:44.038Z,10.40
2023-03-16T20:48:30.044Z,10.60
2023-03-16T20:51:16.414Z,10.60
2023-03-16T20:54:02.291Z,10.50
2023-03-16T20:56:48.357Z,10.50
2023-03-16T20:59:35.145Z,10.40
2023-03-16T21:06:02.207Z,10.30
2023-03-16T21:08:48.835Z,9.90
2023-03-16T21:11:38.059Z,9.90
2023-03-16T21:14:24.719Z,9.70
2023-03-16T21:17:26.331Z,9.70
2023-03-16T21:20:19.054Z,8.70
2023-03-16T21:23:05.007Z,9.90
2023-03-16T21:25:54.849Z,9.90
2023-03-16T21:28:41.161Z,9.80
2023-03-16T21:31:28.333Z,9.90
2023-03-16T21:34:27.021Z,10.20
2023-03-16T21:37:14.684Z,10.40
2023-03-16T21:40:01.449Z,9.80
2023-03-16T21:42:48.187Z,9.80
2023-03-16T21:45:34.880Z,10.00
2023-03-16T21:48:26.026Z,10.00
2023-03-16T21:51:19.079Z,9.70
2023-03-16T21:54:08.692Z,9.50
2023-03-16T21:56:55.250Z,9.80
2023-03-16T21:59:41.347Z,9.90
2023-03-16T22:02:28.195Z,9.90
2023-03-16T22:05:39.577Z,9.60
2023-03-16T22:08:30.358Z,9.90
2023-03-16T22:11:21.421Z,10.00
2023-03-16T22:14:10.190Z,9.80
2023-03-16T22:16:56.925Z,9.80
2023-03-16T22:19:42.767Z,9.70
2023-03-16T22:22:32.214Z,9.50
2023-03-16T22:25:21.695Z,9.40
2023-03-16T22:28:12.745Z,9.70
2023-03-16T22:31:01.176Z,9.70
2023-03-16T22:33:48.837Z,9.70
2023-03-16T22:36:35.071Z,9.30
2023-03-16T22:39:21.459Z,9.20
2023-03-16T22:42:29.372Z,9.30
2023-03-16T22:45:23.298Z,9.50
2023-03-16T22:48:27.502Z,9.70
2023-03-16T22:51:30.331Z,10.00
2023-03-16T22:54:20.249Z,10.10
2023-03-16T22:57:07.469Z,10.20
2023-03-16T22:59:53.880Z,10.20
2023-03-16T23:02:41.071Z,10.30
2023-03-16T23:05:30.565Z,10.30
2023-03-16T23:08:20.636Z,10.30
2023-03-16T23:11:36.114Z,10.30
2023-03-16T23:14:25.929Z,11.90
2023-03-16T23:17:20.342Z,10.10
2023-03-16T23:20:31.779Z,10.00
2023-03-16T23:23:19.088Z,9.90
2023-03-16T23:26:14.759Z,9.70
2023-03-16T23:29:01.313Z,9.70
2023-03-16T23:31:47.880Z,9.60
2023-03-16T23:34:34.144Z,9.40
2023-03-16T23:37:20.643Z,9.30
2023-03-16T23:40:07.768Z,9.30
2023-03-16T23:42:56.094Z,9.30
2023-03-16T23:45:45.418Z,9.20
2023-03-16T23:48:33.191Z,9.30
2023-03-16T23:51:29.255Z,9.20
2023-03-16T23:54:21.447Z,9.20
2023-03-16T23:57:08.745Z,9.10
2023-03-16T23:59:54.354Z,9.00
